sensor_id;sensor_type;location;lat;lon;timestamp;temperature;humidity
71514;DHT22;59335;46.652;21.272;2024-03-07T00:02:52;23.81;38.71
71514;DHT22;59335;46.652;21.272;2024-03-07T00:05:56;23.81;38.67
71514;DHT22;59335;46.652;21.272;2024-03-07T00:08:59;23.81;38.65
71514;DHT22;59335;46.652;21.272;2024-03-07T00:12:03;23.80;38.65
71514;DHT22;59335;46.652;21.272;2024-03-07T00:15:08;23.80;38.62
71514;DHT22;59335;46.652;21.272;2024-03-07T00:18:11;23.82;38.62
71514;DHT22;59335;46.652;21.272;2024-03-07T00:21:15;23.80;38.57
71514;DHT22;59335;46.652;21.272;2024-03-07T00:24:17;23.80;38.54
71514;DHT22;59335;46.652;21.272;2024-03-07T00:27:22;23.81;38.57
71514;DHT22;59335;46.652;21.272;2024-03-07T00:30:26;23.80;38.51
71514;DHT22;59335;46.652;21.272;2024-03-07T00:33:33;23.80;38.50
71514;DHT22;59335;46.652;21.272;2024-03-07T00:36:56;23.81;38.51
71514;DHT22;59335;46.652;21.272;2024-03-07T00:40:00;23.80;38.49
71514;DHT22;59335;46.652;21.272;2024-03-07T00:43:03;23.81;38.44
71514;DHT22;59335;46.652;21.272;2024-03-07T00:46:06;23.80;38.46
71514;DHT22;59335;46.652;21.272;2024-03-07T00:49:09;23.81;38.47
71514;DHT22;59335;46.652;21.272;2024-03-07T00:52:12;23.82;38.38
71514;DHT22;59335;46.652;21.272;2024-03-07T00:55:15;23.81;38.44
71514;DHT22;59335;46.652;21.272;2024-03-07T00:58:18;23.81;38.40
71514;DHT22;59335;46.652;21.272;2024-03-07T01:01:22;23.81;38.32
71514;DHT22;59335;46.652;21.272;2024-03-07T01:04:26;23.80;38.37
71514;DHT22;59335;46.652;21.272;2024-03-07T01:07:33;23.80;38.29
71514;DHT22;59335;46.652;21.272;2024-03-07T01:10:36;23.80;38.27
71514;DHT22;59335;46.652;21.272;2024-03-07T01:13:42;23.78;38.23
71514;DHT22;59335;46.652;21.272;2024-03-07T01:16:46;23.78;38.22
71514;DHT22;59335;46.652;21.272;2024-03-07T01:19:49;23.81;38.22
71514;DHT22;59335;46.652;21.272;2024-03-07T01:22:52;23.81;38.22
71514;DHT22;59335;46.652;21.272;2024-03-07T01:25:56;23.81;38.17
71514;DHT22;59335;46.652;21.272;2024-03-07T01:29:02;23.78;38.17
71514;DHT22;59335;46.652;21.272;2024-03-07T01:32:06;23.75;38.12
71514;DHT22;59335;46.652;21.272;2024-03-07T01:35:09;23.80;38.19
71514;DHT22;59335;46.652;21.272;2024-03-07T01:38:14;23.77;38.18
71514;DHT22;59335;46.652;21.272;2024-03-07T01:41:16;23.80;38.20
71514;DHT22;59335;46.652;21.272;2024-03-07T01:44:21;23.80;38.13
71514;DHT22;59335;46.652;21.272;2024-03-07T01:47:24;23.81;38.10
71514;DHT22;59335;46.652;21.272;2024-03-07T01:50:27;23.78;38.13
71514;DHT22;59335;46.652;21.272;2024-03-07T01:53:32;23.80;38.11
71514;DHT22;59335;46.652;21.272;2024-03-07T01:56:36;23.78;38.09
71514;DHT22;59335;46.652;21.272;2024-03-07T01:59:39;23.81;38.10
71514;DHT22;59335;46.652;21.272;2024-03-07T02:02:42;23.77;38.13
71514;DHT22;59335;46.652;21.272;2024-03-07T02:05:45;23.78;38.06
71514;DHT22;59335;46.652;21.272;2024-03-07T02:08:48;23.77;38.09
71514;DHT22;59335;46.652;21.272;2024-03-07T02:11:51;23.80;38.05
71514;DHT22;59335;46.652;21.272;2024-03-07T02:14:56;23.77;38.03
71514;DHT22;59335;46.652;21.272;2024-03-07T02:18:00;23.78;37.99
71514;DHT22;59335;46.652;21.272;2024-03-07T02:21:07;23.77;38.00
71514;DHT22;59335;46.652;21.272;2024-03-07T02:24:11;23.80;38.02
71514;DHT22;59335;46.652;21.272;2024-03-07T02:27:14;23.77;37.96
71514;DHT22;59335;46.652;21.272;2024-03-07T02:30:18;23.80;37.99
71514;DHT22;59335;46.652;21.272;2024-03-07T02:33:21;23.77;37.95
71514;DHT22;59335;46.652;21.272;2024-03-07T02:36:26;23.80;37.91
71514;DHT22;59335;46.652;21.272;2024-03-07T02:39:29;23.78;37.95
71514;DHT22;59335;46.652;21.272;2024-03-07T02:42:32;23.77;37.95
71514;DHT22;59335;46.652;21.272;2024-03-07T02:45:35;23.80;37.89
71514;DHT22;59335;46.652;21.272;2024-03-07T02:48:38;23.77;37.92
71514;DHT22;59335;46.652;21.272;2024-03-07T02:51:42;23.75;37.91
71514;DHT22;59335;46.652;21.272;2024-03-07T02:54:44;23.77;37.88
71514;DHT22;59335;46.652;21.272;2024-03-07T02:57:47;23.80;37.89
71514;DHT22;59335;46.652;21.272;2024-03-07T03:00:58;23.75;37.86
71514;DHT22;59335;46.652;21.272;2024-03-07T03:04:02;23.77;37.85
71514;DHT22;59335;46.652;21.272;2024-03-07T03:07:05;23.77;37.85
71514;DHT22;59335;46.652;21.272;2024-03-07T03:10:09;23.78;37.84
71514;DHT22;59335;46.652;21.272;2024-03-07T03:13:12;23.78;37.82
71514;DHT22;59335;46.652;21.272;2024-03-07T03:16:15;23.77;37.85
71514;DHT22;59335;46.652;21.272;2024-03-07T03:19:21;23.75;37.85
71514;DHT22;59335;46.652;21.272;2024-03-07T03:22:25;23.78;37.81
71514;DHT22;59335;46.652;21.272;2024-03-07T03:25:29;23.77;37.78
71514;DHT22;59335;46.652;21.272;2024-03-07T03:28:37;23.75;37.80
71514;DHT22;59335;46.652;21.272;2024-03-07T03:31:43;23.77;37.79
71514;DHT22;59335;46.652;21.272;2024-03-07T03:34:46;23.77;37.81
71514;DHT22;59335;46.652;21.272;2024-03-07T03:37:49;23.75;37.73
71514;DHT22;59335;46.652;21.272;2024-03-07T03:40:53;23.75;37.74
71514;DHT22;59335;46.652;21.272;2024-03-07T03:43:59;23.77;37.73
71514;DHT22;59335;46.652;21.272;2024-03-07T03:47:03;23.77;37.69
71514;DHT22;59335;46.652;21.272;2024-03-07T03:50:08;23.75;37.68
71514;DHT22;59335;46.652;21.272;2024-03-07T03:53:12;23.77;37.71
71514;DHT22;59335;46.652;21.272;2024-03-07T03:56:15;23.77;37.69
71514;DHT22;59335;46.652;21.272;2024-03-07T03:59:19;23.74;37.71
71514;DHT22;59335;46.652;21.272;2024-03-07T04:02:22;23.75;37.69
71514;DHT22;59335;46.652;21.272;2024-03-07T04:05:26;23.75;37.68
71514;DHT22;59335;46.652;21.272;2024-03-07T04:08:29;23.75;37.67
71514;DHT22;59335;46.652;21.272;2024-03-07T04:11:32;23.75;37.68
71514;DHT22;59335;46.652;21.272;2024-03-07T04:14:35;23.74;37.71
71514;DHT22;59335;46.652;21.272;2024-03-07T04:17:39;23.75;37.66
71514;DHT22;59335;46.652;21.272;2024-03-07T04:20:42;23.75;37.68
71514;DHT22;59335;46.652;21.272;2024-03-07T04:23:46;23.77;37.64
71514;DHT22;59335;46.652;21.272;2024-03-07T04:26:50;23.77;37.63
71514;DHT22;59335;46.652;21.272;2024-03-07T04:29:56;23.75;37.62
71514;DHT22;59335;46.652;21.272;2024-03-07T04:32:59;23.74;37.57
71514;DHT22;59335;46.652;21.272;2024-03-07T04:36:03;23.74;37.58
71514;DHT22;59335;46.652;21.272;2024-03-07T04:39:06;23.74;37.64
71514;DHT22;59335;46.652;21.272;2024-03-07T04:42:17;23.73;37.62
71514;DHT22;59335;46.652;21.272;2024-03-07T04:45:20;23.74;37.64
71514;DHT22;59335;46.652;21.272;2024-03-07T04:48:24;23.74;37.64
71514;DHT22;59335;46.652;21.272;2024-03-07T04:51:27;23.71;37.62
71514;DHT22;59335;46.652;21.272;2024-03-07T04:54:31;23.71;37.61
71514;DHT22;59335;46.652;21.272;2024-03-07T04:57:38;23.73;37.58
71514;DHT22;59335;46.652;21.272;2024-03-07T05:00:43;23.77;37.61
71514;DHT22;59335;46.652;21.272;2024-03-07T05:03:46;23.74;37.61
71514;DHT22;59335;46.652;21.272;2024-03-07T05:06:48;23.75;37.61
71514;DHT22;59335;46.652;21.272;2024-03-07T05:09:51;23.74;37.62
71514;DHT22;59335;46.652;21.272;2024-03-07T05:12:54;23.74;37.55
71514;DHT22;59335;46.652;21.272;2024-03-07T05:15:57;23.73;37.53
71514;DHT22;59335;46.652;21.272;2024-03-07T05:19:00;23.74;37.55
71514;DHT22;59335;46.652;21.272;2024-03-07T05:22:03;23.73;37.50
71514;DHT22;59335;46.652;21.272;2024-03-07T05:25:09;23.74;37.50
71514;DHT22;59335;46.652;21.272;2024-03-07T05:28:12;23.74;37.57
71514;DHT22;59335;46.652;21.272;2024-03-07T05:31:15;23.73;37.51
71514;DHT22;59335;46.652;21.272;2024-03-07T05:34:20;23.73;37.52
71514;DHT22;59335;46.652;21.272;2024-03-07T05:37:26;23.73;37.53
71514;DHT22;59335;46.652;21.272;2024-03-07T05:40:30;23.74;37.53
71514;DHT22;59335;46.652;21.272;2024-03-07T05:43:33;23.71;37.47
71514;DHT22;59335;46.652;21.272;2024-03-07T05:46:43;23.70;37.49
71514;DHT22;59335;46.652;21.272;2024-03-07T05:49:52;23.74;37.52
71514;DHT22;59335;46.652;21.272;2024-03-07T05:52:54;23.73;37.48
71514;DHT22;59335;46.652;21.272;2024-03-07T05:55:57;23.71;37.46
71514;DHT22;59335;46.652;21.272;2024-03-07T05:59:05;23.69;37.45
71514;DHT22;59335;46.652;21.272;2024-03-07T06:02:09;23.71;37.51
71514;DHT22;59335;46.652;21.272;2024-03-07T06:05:15;23.70;37.45
71514;DHT22;59335;46.652;21.272;2024-03-07T06:08:20;23.73;37.52
71514;DHT22;59335;46.652;21.272;2024-03-07T06:11:22;23.74;37.58
71514;DHT22;59335;46.652;21.272;2024-03-07T06:14:29;23.61;36.77
71514;DHT22;59335;46.652;21.272;2024-03-07T06:17:33;23.38;35.83
71514;DHT22;59335;46.652;21.272;2024-03-07T06:20:37;23.32;36.74
71514;DHT22;59335;46.652;21.272;2024-03-07T06:23:40;23.39;36.76
71514;DHT22;59335;46.652;21.272;2024-03-07T06:26:43;23.43;37.08
71514;DHT22;59335;46.652;21.272;2024-03-07T06:29:46;23.46;37.24
71514;DHT22;59335;46.652;21.272;2024-03-07T06:32:53;23.56;37.32
71514;DHT22;59335;46.652;21.272;2024-03-07T06:36:01;23.60;37.38
71514;DHT22;59335;46.652;21.272;2024-03-07T06:39:06;23.64;37.68
71514;DHT22;59335;46.652;21.272;2024-03-07T06:42:09;23.70;37.60
71514;DHT22;59335;46.652;21.272;2024-03-07T06:45:12;23.64;38.00
71514;DHT22;59335;46.652;21.272;2024-03-07T06:48:17;23.69;38.95
71514;DHT22;59335;46.652;21.272;2024-03-07T06:51:26;23.69;38.62
71514;DHT22;59335;46.652;21.272;2024-03-07T06:54:30;23.74;38.40
71514;DHT22;59335;46.652;21.272;2024-03-07T06:57:35;23.73;39.40
71514;DHT22;59335;46.652;21.272;2024-03-07T07:00:40;23.77;39.62
71514;DHT22;59335;46.652;21.272;2024-03-07T07:03:44;23.82;39.36
71514;DHT22;59335;46.652;21.272;2024-03-07T07:06:57;23.78;39.93
71514;DHT22;59335;46.652;21.272;2024-03-07T07:10:00;23.81;39.52
71514;DHT22;59335;46.652;21.272;2024-03-07T07:13:07;23.82;39.47
71514;DHT22;59335;46.652;21.272;2024-03-07T07:16:10;23.84;39.38
71514;DHT22;59335;46.652;21.272;2024-03-07T07:19:13;23.85;39.36
71514;DHT22;59335;46.652;21.272;2024-03-07T07:22:21;23.84;39.29
71514;DHT22;59335;46.652;21.272;2024-03-07T07:25:29;23.85;39.27
71514;DHT22;59335;46.652;21.272;2024-03-07T07:28:32;23.81;39.81
71514;DHT22;59335;46.652;21.272;2024-03-07T07:31:38;23.88;39.81
71514;DHT22;59335;46.652;21.272;2024-03-07T07:34:42;23.88;39.65
71514;DHT22;59335;46.652;21.272;2024-03-07T07:37:49;23.88;39.79
71514;DHT22;59335;46.652;21.272;2024-03-07T07:40:52;23.91;39.69
71514;DHT22;59335;46.652;21.272;2024-03-07T07:43:55;23.94;39.76
71514;DHT22;59335;46.652;21.272;2024-03-07T07:46:59;23.96;39.69
71514;DHT22;59335;46.652;21.272;2024-03-07T07:50:02;23.94;40.02
71514;DHT22;59335;46.652;21.272;2024-03-07T07:53:10;23.94;40.34
71514;DHT22;59335;46.652;21.272;2024-03-07T07:56:14;23.98;40.12
71514;DHT22;59335;46.652;21.272;2024-03-07T07:59:23;24.00;40.06
71514;DHT22;59335;46.652;21.272;2024-03-07T08:02:40;24.01;40.32
71514;DHT22;59335;46.652;21.272;2024-03-07T08:05:46;24.02;40.29
71514;DHT22;59335;46.652;21.272;2024-03-07T08:08:49;24.04;40.27
71514;DHT22;59335;46.652;21.272;2024-03-07T08:11:54;24.07;40.30
71514;DHT22;59335;46.652;21.272;2024-03-07T08:15:04;24.07;40.48
71514;DHT22;59335;46.652;21.272;2024-03-07T08:18:10;24.12;40.47
71514;DHT22;59335;46.652;21.272;2024-03-07T08:21:22;24.12;40.37
71514;DHT22;59335;46.652;21.272;2024-03-07T08:24:33;24.12;40.40
71514;DHT22;59335;46.652;21.272;2024-03-07T08:27:39;24.12;40.41
71514;DHT22;59335;46.652;21.272;2024-03-07T08:30:45;24.12;40.37
71514;DHT22;59335;46.652;21.272;2024-03-07T08:33:49;24.11;40.30
71514;DHT22;59335;46.652;21.272;2024-03-07T08:36:54;24.11;40.24
71514;DHT22;59335;46.652;21.272;2024-03-07T08:40:26;24.09;40.33
71514;DHT22;59335;46.652;21.272;2024-03-07T08:43:34;24.09;40.65
71514;DHT22;59335;46.652;21.272;2024-03-07T08:46:37;24.08;40.58
71514;DHT22;59335;46.652;21.272;2024-03-07T08:49:41;24.08;40.65
71514;DHT22;59335;46.652;21.272;2024-03-07T08:52:46;24.07;42.21
71514;DHT22;59335;46.652;21.272;2024-03-07T08:55:52;24.07;41.46
71514;DHT22;59335;46.652;21.272;2024-03-07T08:58:58;24.05;41.17
71514;DHT22;59335;46.652;21.272;2024-03-07T09:02:04;24.12;41.45
71514;DHT22;59335;46.652;21.272;2024-03-07T09:05:08;24.12;41.36
71514;DHT22;59335;46.652;21.272;2024-03-07T09:08:12;24.14;41.15
71514;DHT22;59335;46.652;21.272;2024-03-07T09:11:15;24.09;41.30
71514;DHT22;59335;46.652;21.272;2024-03-07T09:14:24;24.14;41.16
71514;DHT22;59335;46.652;21.272;2024-03-07T09:17:31;24.15;41.12
71514;DHT22;59335;46.652;21.272;2024-03-07T09:20:40;24.18;41.05
71514;DHT22;59335;46.652;21.272;2024-03-07T09:23:45;24.19;41.16
71514;DHT22;59335;46.652;21.272;2024-03-07T09:26:57;24.19;41.15
71514;DHT22;59335;46.652;21.272;2024-03-07T09:30:09;24.19;41.18
71514;DHT22;59335;46.652;21.272;2024-03-07T09:33:30;24.15;41.29
71514;DHT22;59335;46.652;21.272;2024-03-07T09:36:34;24.19;41.39
71514;DHT22;59335;46.652;21.272;2024-03-07T09:39:39;24.19;41.60
71514;DHT22;59335;46.652;21.272;2024-03-07T09:42:50;24.21;41.66
71514;DHT22;59335;46.652;21.272;2024-03-07T09:46:02;24.24;41.75
71514;DHT22;59335;46.652;21.272;2024-03-07T09:49:05;24.24;41.76
71514;DHT22;59335;46.652;21.272;2024-03-07T09:52:11;24.25;41.94
71514;DHT22;59335;46.652;21.272;2024-03-07T09:55:18;24.25;42.04
71514;DHT22;59335;46.652;21.272;2024-03-07T09:58:31;24.15;41.44
71514;DHT22;59335;46.652;21.272;2024-03-07T10:01:41;24.21;42.32
71514;DHT22;59335;46.652;21.272;2024-03-07T10:04:48;24.24;42.22
71514;DHT22;59335;46.652;21.272;2024-03-07T10:07:52;24.22;42.38
71514;DHT22;59335;46.652;21.272;2024-03-07T10:10:56;24.24;42.25
71514;DHT22;59335;46.652;21.272;2024-03-07T10:13:59;24.25;42.23
71514;DHT22;59335;46.652;21.272;2024-03-07T10:17:02;24.25;42.17
71514;DHT22;59335;46.652;21.272;2024-03-07T10:20:07;24.25;42.19
71514;DHT22;59335;46.652;21.272;2024-03-07T10:23:26;24.24;42.27
71514;DHT22;59335;46.652;21.272;2024-03-07T10:26:33;24.28;42.30
71514;DHT22;59335;46.652;21.272;2024-03-07T10:29:39;24.25;42.45
71514;DHT22;59335;46.652;21.272;2024-03-07T10:32:44;24.25;42.75
71514;DHT22;59335;46.652;21.272;2024-03-07T10:35:49;24.28;42.52
71514;DHT22;59335;46.652;21.272;2024-03-07T10:38:55;24.26;42.44
71514;DHT22;59335;46.652;21.272;2024-03-07T10:42:01;24.29;42.52
71514;DHT22;59335;46.652;21.272;2024-03-07T10:45:09;24.30;42.51
71514;DHT22;59335;46.652;21.272;2024-03-07T10:48:18;24.29;42.50
71514;DHT22;59335;46.652;21.272;2024-03-07T10:51:37;24.32;42.78
71514;DHT22;59335;46.652;21.272;2024-03-07T11:02:33;24.40;43.49
71514;DHT22;59335;46.652;21.272;2024-03-07T11:05:39;24.36;43.33
71514;DHT22;59335;46.652;21.272;2024-03-07T11:08:54;24.40;43.18
71514;DHT22;59335;46.652;21.272;2024-03-07T11:11:58;24.39;43.21
71514;DHT22;59335;46.652;21.272;2024-03-07T11:15:06;24.38;43.11
71514;DHT22;59335;46.652;21.272;2024-03-07T11:18:10;24.38;43.11
71514;DHT22;59335;46.652;21.272;2024-03-07T11:21:40;24.38;43.10
71514;DHT22;59335;46.652;21.272;2024-03-07T11:25:03;24.38;43.08
71514;DHT22;59335;46.652;21.272;2024-03-07T11:28:15;24.35;43.12
71514;DHT22;59335;46.652;21.272;2024-03-07T11:31:26;24.35;43.02
71514;DHT22;59335;46.652;21.272;2024-03-07T11:34:37;24.36;43.04
71514;DHT22;59335;46.652;21.272;2024-03-07T11:37:44;24.39;43.02
71514;DHT22;59335;46.652;21.272;2024-03-07T11:40:53;24.42;42.95
71514;DHT22;59335;46.652;21.272;2024-03-07T11:43:59;24.39;42.89
71514;DHT22;59335;46.652;21.272;2024-03-07T11:47:03;24.40;42.93
71514;DHT22;59335;46.652;21.272;2024-03-07T11:50:14;24.39;43.03
71514;DHT22;59335;46.652;21.272;2024-03-07T11:53:22;24.42;43.09
71514;DHT22;59335;46.652;21.272;2024-03-07T11:56:29;24.39;43.06
71514;DHT22;59335;46.652;21.272;2024-03-07T11:59:34;24.40;42.99
71514;DHT22;59335;46.652;21.272;2024-03-07T12:02:40;24.42;43.20
71514;DHT22;59335;46.652;21.272;2024-03-07T12:05:48;24.40;43.44
71514;DHT22;59335;46.652;21.272;2024-03-07T12:08:52;24.39;43.29
71514;DHT22;59335;46.652;21.272;2024-03-07T12:11:55;24.40;43.33
71514;DHT22;59335;46.652;21.272;2024-03-07T12:15:03;24.42;43.50
71514;DHT22;59335;46.652;21.272;2024-03-07T12:18:12;24.39;43.88
71514;DHT22;59335;46.652;21.272;2024-03-07T12:21:21;24.36;43.61
71514;DHT22;59335;46.652;21.272;2024-03-07T12:24:26;24.39;43.56
71514;DHT22;59335;46.652;21.272;2024-03-07T12:27:33;24.39;43.58
71514;DHT22;59335;46.652;21.272;2024-03-07T12:30:58;24.33;43.63
71514;DHT22;59335;46.652;21.272;2024-03-07T12:34:00;24.33;43.54
71514;DHT22;59335;46.652;21.272;2024-03-07T12:37:07;24.32;43.71
71514;DHT22;59335;46.652;21.272;2024-03-07T12:40:15;24.33;43.83
71514;DHT22;59335;46.652;21.272;2024-03-07T12:43:22;24.40;43.91
71514;DHT22;59335;46.652;21.272;2024-03-07T12:46:28;24.36;43.80
71514;DHT22;59335;46.652;21.272;2024-03-07T12:49:31;24.32;43.98
71514;DHT22;59335;46.652;21.272;2024-03-07T12:52:35;24.33;44.15
71514;DHT22;59335;46.652;21.272;2024-03-07T12:55:41;24.33;44.27
71514;DHT22;59335;46.652;21.272;2024-03-07T12:58:47;24.36;44.35
71514;DHT22;59335;46.652;21.272;2024-03-07T13:01:54;24.38;44.30
71514;DHT22;59335;46.652;21.272;2024-03-07T13:05:03;24.40;44.57
71514;DHT22;59335;46.652;21.272;2024-03-07T13:08:10;24.40;44.38
71514;DHT22;59335;46.652;21.272;2024-03-07T13:11:16;24.42;44.37
71514;DHT22;59335;46.652;21.272;2024-03-07T13:14:19;24.40;44.26
71514;DHT22;59335;46.652;21.272;2024-03-07T13:17:23;24.42;44.08
71514;DHT22;59335;46.652;21.272;2024-03-07T13:20:26;24.42;44.11
71514;DHT22;59335;46.652;21.272;2024-03-07T13:23:33;24.46;44.12
71514;DHT22;59335;46.652;21.272;2024-03-07T13:26:45;24.45;44.06
71514;DHT22;59335;46.652;21.272;2024-03-07T13:29:48;24.48;44.02
71514;DHT22;59335;46.652;21.272;2024-03-07T13:32:53;24.46;44.16
71514;DHT22;59335;46.652;21.272;2024-03-07T13:35:57;24.49;44.10
71514;DHT22;59335;46.652;21.272;2024-03-07T13:39:00;24.48;44.09
71514;DHT22;59335;46.652;21.272;2024-03-07T13:42:05;24.51;44.07
71514;DHT22;59335;46.652;21.272;2024-03-07T13:45:10;24.51;44.18
71514;DHT22;59335;46.652;21.272;2024-03-07T13:48:16;24.52;44.50
71514;DHT22;59335;46.652;21.272;2024-03-07T13:51:20;24.49;44.45
71514;DHT22;59335;46.652;21.272;2024-03-07T13:54:25;24.45;44.71
71514;DHT22;59335;46.652;21.272;2024-03-07T13:57:45;24.46;44.47
71514;DHT22;59335;46.652;21.272;2024-03-07T14:15:29;24.35;44.11
71514;DHT22;59335;46.652;21.272;2024-03-07T14:32:40;24.36;44.32
71514;DHT22;59335;46.652;21.272;2024-03-07T14:36:07;24.35;44.36
71514;DHT22;59335;46.652;21.272;2024-03-07T14:39:19;24.35;44.29
71514;DHT22;59335;46.652;21.272;2024-03-07T14:42:27;24.36;44.27
71514;DHT22;59335;46.652;21.272;2024-03-07T14:45:41;24.35;44.34
71514;DHT22;59335;46.652;21.272;2024-03-07T14:48:44;24.36;44.31
71514;DHT22;59335;46.652;21.272;2024-03-07T14:51:47;24.36;44.38
71514;DHT22;59335;46.652;21.272;2024-03-07T14:55:02;24.35;44.40
71514;DHT22;59335;46.652;21.272;2024-03-07T14:58:06;24.32;44.37
71514;DHT22;59335;46.652;21.272;2024-03-07T15:01:12;24.28;44.47
71514;DHT22;59335;46.652;21.272;2024-03-07T15:04:16;24.30;44.45
71514;DHT22;59335;46.652;21.272;2024-03-07T15:07:20;24.28;44.45
71514;DHT22;59335;46.652;21.272;2024-03-07T15:10:29;24.24;44.51
71514;DHT22;59335;46.652;21.272;2024-03-07T15:13:33;24.25;44.32
71514;DHT22;59335;46.652;21.272;2024-03-07T15:16:38;24.25;44.41
71514;DHT22;59335;46.652;21.272;2024-03-07T15:19:43;24.22;44.46
71514;DHT22;59335;46.652;21.272;2024-03-07T15:22:45;24.22;44.42
71514;DHT22;59335;46.652;21.272;2024-03-07T15:25:48;24.21;44.43
71514;DHT22;59335;46.652;21.272;2024-03-07T15:28:53;24.22;44.32
71514;DHT22;59335;46.652;21.272;2024-03-07T15:31:59;24.21;44.25
71514;DHT22;59335;46.652;21.272;2024-03-07T15:35:02;24.21;44.21
71514;DHT22;59335;46.652;21.272;2024-03-07T15:38:06;24.19;44.14
71514;DHT22;59335;46.652;21.272;2024-03-07T15:41:12;24.18;44.05
71514;DHT22;59335;46.652;21.272;2024-03-07T15:44:17;24.18;44.08
71514;DHT22;59335;46.652;21.272;2024-03-07T15:47:21;24.14;45.74
71514;DHT22;59335;46.652;21.272;2024-03-07T15:50:26;24.01;58.56
71514;DHT22;59335;46.652;21.272;2024-03-07T15:53:32;23.96;59.84
71514;DHT22;59335;46.652;21.272;2024-03-07T15:56:38;24.01;58.86
71514;DHT22;59335;46.652;21.272;2024-03-07T15:59:43;23.97;57.87
71514;DHT22;59335;46.652;21.272;2024-03-07T16:02:46;23.96;57.63
71514;DHT22;59335;46.652;21.272;2024-03-07T16:05:49;23.94;56.58
71514;DHT22;59335;46.652;21.272;2024-03-07T16:08:52;23.90;56.86
71514;DHT22;59335;46.652;21.272;2024-03-07T16:11:54;23.93;56.46
71514;DHT22;59335;46.652;21.272;2024-03-07T16:14:58;23.91;55.81
71514;DHT22;59335;46.652;21.272;2024-03-07T16:18:01;23.91;54.40
71514;DHT22;59335;46.652;21.272;2024-03-07T16:21:05;23.94;53.86
71514;DHT22;59335;46.652;21.272;2024-03-07T16:24:08;23.91;52.71
71514;DHT22;59335;46.652;21.272;2024-03-07T16:27:13;23.93;51.73
71514;DHT22;59335;46.652;21.272;2024-03-07T16:30:20;23.93;51.03
71514;DHT22;59335;46.652;21.272;2024-03-07T16:33:23;23.94;50.41
71514;DHT22;59335;46.652;21.272;2024-03-07T16:36:31;23.94;49.78
71514;DHT22;59335;46.652;21.272;2024-03-07T16:39:34;23.94;49.39
71514;DHT22;59335;46.652;21.272;2024-03-07T16:42:39;23.98;48.97
71514;DHT22;59335;46.652;21.272;2024-03-07T16:45:42;23.97;48.78
71514;DHT22;59335;46.652;21.272;2024-03-07T16:48:46;23.97;48.47
71514;DHT22;59335;46.652;21.272;2024-03-07T16:51:51;23.97;48.27
71514;DHT22;59335;46.652;21.272;2024-03-07T16:54:53;23.96;47.96
71514;DHT22;59335;46.652;21.272;2024-03-07T16:57:56;23.97;47.80
71514;DHT22;59335;46.652;21.272;2024-03-07T17:01:02;23.96;47.69
71514;DHT22;59335;46.652;21.272;2024-03-07T17:04:06;24.00;47.45
71514;DHT22;59335;46.652;21.272;2024-03-07T17:07:10;23.94;47.30
71514;DHT22;59335;46.652;21.272;2024-03-07T17:10:14;24.00;47.20
71514;DHT22;59335;46.652;21.272;2024-03-07T17:13:17;23.94;47.02
71514;DHT22;59335;46.652;21.272;2024-03-07T17:16:23;23.96;46.82
71514;DHT22;59335;46.652;21.272;2024-03-07T17:19:26;23.97;46.74
71514;DHT22;59335;46.652;21.272;2024-03-07T17:22:29;23.97;46.63
71514;DHT22;59335;46.652;21.272;2024-03-07T17:25:33;23.96;46.54
71514;DHT22;59335;46.652;21.272;2024-03-07T17:28:36;23.97;46.36
71514;DHT22;59335;46.652;21.272;2024-03-07T17:31:38;23.94;46.17
71514;DHT22;59335;46.652;21.272;2024-03-07T17:34:41;23.96;45.98
71514;DHT22;59335;46.652;21.272;2024-03-07T17:37:45;23.96;45.91
71514;DHT22;59335;46.652;21.272;2024-03-07T17:40:49;23.94;45.82
71514;DHT22;59335;46.652;21.272;2024-03-07T17:43:52;23.94;45.69
71514;DHT22;59335;46.652;21.272;2024-03-07T17:46:55;23.94;45.62
71514;DHT22;59335;46.652;21.272;2024-03-07T17:49:59;23.94;45.45
71514;DHT22;59335;46.652;21.272;2024-03-07T17:53:08;23.96;45.39
71514;DHT22;59335;46.652;21.272;2024-03-07T17:56:14;23.93;45.25
71514;DHT22;59335;46.652;21.272;2024-03-07T17:59:17;23.91;45.19
71514;DHT22;59335;46.652;21.272;2024-03-07T18:02:24;23.93;45.11
71514;DHT22;59335;46.652;21.272;2024-03-07T18:05:29;23.90;44.99
71514;DHT22;59335;46.652;21.272;2024-03-07T18:08:32;23.93;44.91
71514;DHT22;59335;46.652;21.272;2024-03-07T18:11:49;23.90;44.73
71514;DHT22;59335;46.652;21.272;2024-03-07T18:14:52;23.93;44.69
71514;DHT22;59335;46.652;21.272;2024-03-07T18:18:16;23.91;44.54
71514;DHT22;59335;46.652;21.272;2024-03-07T18:21:20;23.91;44.48
71514;DHT22;59335;46.652;21.272;2024-03-07T18:24:24;23.91;44.48
71514;DHT22;59335;46.652;21.272;2024-03-07T18:27:28;23.91;44.47
71514;DHT22;59335;46.652;21.272;2024-03-07T18:30:33;23.90;44.34
71514;DHT22;59335;46.652;21.272;2024-03-07T18:33:36;23.88;44.22
71514;DHT22;59335;46.652;21.272;2024-03-07T18:36:45;23.87;44.17
71514;DHT22;59335;46.652;21.272;2024-03-07T18:39:48;23.87;44.08
71514;DHT22;59335;46.652;21.272;2024-03-07T18:42:52;23.88;44.02
71514;DHT22;59335;46.652;21.272;2024-03-07T18:45:56;23.87;43.99
71514;DHT22;59335;46.652;21.272;2024-03-07T18:49:02;23.90;43.95
71514;DHT22;59335;46.652;21.272;2024-03-07T18:52:11;23.88;43.81
71514;DHT22;59335;46.652;21.272;2024-03-07T18:55:14;23.85;43.76
71514;DHT22;59335;46.652;21.272;2024-03-07T18:58:20;23.87;43.76
71514;DHT22;59335;46.652;21.272;2024-03-07T19:01:27;23.85;43.68
71514;DHT22;59335;46.652;21.272;2024-03-07T19:04:36;23.85;43.65
71514;DHT22;59335;46.652;21.272;2024-03-07T19:07:40;23.85;43.60
71514;DHT22;59335;46.652;21.272;2024-03-07T19:10:44;23.87;43.50
71514;DHT22;59335;46.652;21.272;2024-03-07T19:13:48;23.84;43.47
71514;DHT22;59335;46.652;21.272;2024-03-07T19:16:51;23.85;43.48
71514;DHT22;59335;46.652;21.272;2024-03-07T19:19:55;23.84;43.36
71514;DHT22;59335;46.652;21.272;2024-03-07T19:22:58;23.84;43.31
71514;DHT22;59335;46.652;21.272;2024-03-07T19:26:01;23.84;43.26
71514;DHT22;59335;46.652;21.272;2024-03-07T19:29:06;23.84;43.22
71514;DHT22;59335;46.652;21.272;2024-03-07T19:32:09;23.82;43.22
71514;DHT22;59335;46.652;21.272;2024-03-07T19:35:13;23.84;43.15
71514;DHT22;59335;46.652;21.272;2024-03-07T19:38:19;23.85;43.09
71514;DHT22;59335;46.652;21.272;2024-03-07T19:41:23;23.84;43.08
71514;DHT22;59335;46.652;21.272;2024-03-07T19:44:27;23.84;43.01
71514;DHT22;59335;46.652;21.272;2024-03-07T19:47:30;23.82;42.97
71514;DHT22;59335;46.652;21.272;2024-03-07T19:50:33;23.82;42.93